sensor_id;sensor_type;location;lat;lon;timestamp;P1;durP1;ratioP1;P2;durP2;ratioP2
21705;SDS011;11014;53.076;18.208;2024-03-25T00:01:25;24.73;;;13.07;;
21705;SDS011;11014;53.076;18.208;2024-03-25T00:03:53;21.52;;;12.15;;
21705;SDS011;11014;53.076;18.208;2024-03-25T00:06:21;35.42;;;16.90;;
21705;SDS011;11014;53.076;18.208;2024-03-25T00:08:48;37.05;;;19.00;;
21705;SDS011;11014;53.076;18.208;2024-03-25T00:11:16;38.92;;;18.30;;
21705;SDS011;11014;53.076;18.208;2024-03-25T00:13:43;27.90;;;14.32;;
21705;SDS011;11014;53.076;18.208;2024-03-25T00:16:11;27.88;;;13.00;;
21705;SDS011;11014;53.076;18.208;2024-03-25T00:18:38;25.45;;;13.48;;
21705;SDS011;11014;53.076;18.208;2024-03-25T00:21:07;21.25;;;11.48;;
21705;SDS011;11014;53.076;18.208;2024-03-25T00:23:36;16.80;;;10.10;;
21705;SDS011;11014;53.076;18.208;2024-03-25T00:26:03;18.92;;;10.20;;
21705;SDS011;11014;53.076;18.208;2024-03-25T00:28:31;20.70;;;10.38;;
21705;SDS011;11014;53.076;18.208;2024-03-25T00:30:58;16.45;;;10.13;;
21705;SDS011;11014;53.076;18.208;2024-03-25T00:33:30;19.10;;;10.90;;
21705;SDS011;11014;53.076;18.208;2024-03-25T00:36:00;16.33;;;9.98;;
21705;SDS011;11014;53.076;18.208;2024-03-25T00:38:27;21.13;;;10.85;;
21705;SDS011;11014;53.076;18.208;2024-03-25T00:40:56;23.02;;;13.32;;
21705;SDS011;11014;53.076;18.208;2024-03-25T00:43:23;23.00;;;13.68;;
21705;SDS011;11014;53.076;18.208;2024-03-25T00:45:51;29.58;;;14.45;;
21705;SDS011;11014;53.076;18.208;2024-03-25T00:48:18;23.77;;;12.23;;
21705;SDS011;11014;53.076;18.208;2024-03-25T00:50:47;26.10;;;14.27;;
21705;SDS011;11014;53.076;18.208;2024-03-25T00:53:18;34.58;;;16.95;;
21705;SDS011;11014;53.076;18.208;2024-03-25T00:55:46;31.63;;;18.20;;
21705;SDS011;11014;53.076;18.208;2024-03-25T00:58:17;41.05;;;20.63;;
21705;SDS011;11014;53.076;18.208;2024-03-25T01:00:44;45.40;;;25.70;;
21705;SDS011;11014;53.076;18.208;2024-03-25T01:03:12;39.08;;;23.40;;
21705;SDS011;11014;53.076;18.208;2024-03-25T01:05:40;41.75;;;24.92;;
21705;SDS011;11014;53.076;18.208;2024-03-25T01:08:07;28.02;;;17.73;;
21705;SDS011;11014;53.076;18.208;2024-03-25T01:10:40;24.50;;;15.30;;
21705;SDS011;11014;53.076;18.208;2024-03-25T01:13:08;22.80;;;13.90;;
21705;SDS011;11014;53.076;18.208;2024-03-25T01:15:36;19.88;;;12.73;;
21705;SDS011;11014;53.076;18.208;2024-03-25T01:18:04;28.33;;;16.70;;
21705;SDS011;11014;53.076;18.208;2024-03-25T01:20:32;40.95;;;21.23;;
21705;SDS011;11014;53.076;18.208;2024-03-25T01:22:59;45.25;;;23.67;;
21705;SDS011;11014;53.076;18.208;2024-03-25T01:25:27;44.13;;;24.42;;
21705;SDS011;11014;53.076;18.208;2024-03-25T01:27:54;45.92;;;23.50;;
21705;SDS011;11014;53.076;18.208;2024-03-25T01:30:22;34.88;;;20.98;;
21705;SDS011;11014;53.076;18.208;2024-03-25T01:32:49;32.45;;;18.10;;
21705;SDS011;11014;53.076;18.208;2024-03-25T01:35:17;27.52;;;17.05;;
21705;SDS011;11014;53.076;18.208;2024-03-25T01:37:44;27.45;;;16.05;;
21705;SDS011;11014;53.076;18.208;2024-03-25T01:40:12;26.60;;;16.08;;
21705;SDS011;11014;53.076;18.208;2024-03-25T01:42:39;24.23;;;14.50;;
21705;SDS011;11014;53.076;18.208;2024-03-25T01:45:08;28.30;;;14.95;;
21705;SDS011;11014;53.076;18.208;2024-03-25T01:47:37;26.35;;;14.32;;
21705;SDS011;11014;53.076;18.208;2024-03-25T01:50:06;23.45;;;14.52;;
21705;SDS011;11014;53.076;18.208;2024-03-25T01:52:34;29.90;;;16.10;;
21705;SDS011;11014;53.076;18.208;2024-03-25T01:55:02;22.92;;;14.50;;
21705;SDS011;11014;53.076;18.208;2024-03-25T01:57:32;23.88;;;14.52;;
21705;SDS011;11014;53.076;18.208;2024-03-25T02:00:00;27.48;;;16.52;;
21705;SDS011;11014;53.076;18.208;2024-03-25T02:02:35;30.40;;;19.38;;
21705;SDS011;11014;53.076;18.208;2024-03-25T02:05:06;34.42;;;24.08;;
21705;SDS011;11014;53.076;18.208;2024-03-25T02:07:35;33.90;;;22.05;;
21705;SDS011;11014;53.076;18.208;2024-03-25T02:10:04;28.02;;;18.40;;
21705;SDS011;11014;53.076;18.208;2024-03-25T02:12:31;24.60;;;14.93;;
21705;SDS011;11014;53.076;18.208;2024-03-25T02:15:00;26.67;;;15.57;;
21705;SDS011;11014;53.076;18.208;2024-03-25T02:17:28;24.85;;;14.52;;
21705;SDS011;11014;53.076;18.208;2024-03-25T02:19:55;25.63;;;14.57;;
21705;SDS011;11014;53.076;18.208;2024-03-25T02:22:23;24.70;;;14.18;;
21705;SDS011;11014;53.076;18.208;2024-03-25T02:24:52;24.98;;;14.18;;
21705;SDS011;11014;53.076;18.208;2024-03-25T02:27:20;21.40;;;13.43;;
21705;SDS011;11014;53.076;18.208;2024-03-25T02:29:47;23.92;;;13.77;;
21705;SDS011;11014;53.076;18.208;2024-03-25T02:32:21;24.75;;;14.52;;
21705;SDS011;11014;53.076;18.208;2024-03-25T02:34:50;24.50;;;13.57;;
21705;SDS011;11014;53.076;18.208;2024-03-25T02:37:19;22.50;;;13.68;;
21705;SDS011;11014;53.076;18.208;2024-03-25T02:39:47;25.55;;;13.82;;
21705;SDS011;11014;53.076;18.208;2024-03-25T02:42:14;24.45;;;13.25;;
21705;SDS011;11014;53.076;18.208;2024-03-25T02:44:42;27.30;;;14.65;;
21705;SDS011;11014;53.076;18.208;2024-03-25T02:47:10;28.80;;;15.55;;
21705;SDS011;11014;53.076;18.208;2024-03-25T02:49:39;33.17;;;17.38;;
21705;SDS011;11014;53.076;18.208;2024-03-25T02:52:06;36.90;;;19.23;;
21705;SDS011;11014;53.076;18.208;2024-03-25T02:54:34;36.22;;;18.90;;
21705;SDS011;11014;53.076;18.208;2024-03-25T02:57:02;35.22;;;18.50;;
21705;SDS011;11014;53.076;18.208;2024-03-25T02:59:30;38.33;;;18.95;;
21705;SDS011;11014;53.076;18.208;2024-03-25T03:01:59;36.20;;;18.38;;
21705;SDS011;11014;53.076;18.208;2024-03-25T03:04:28;35.20;;;18.75;;
21705;SDS011;11014;53.076;18.208;2024-03-25T03:06:56;41.05;;;19.00;;
21705;SDS011;11014;53.076;18.208;2024-03-25T03:09:24;38.65;;;18.85;;
21705;SDS011;11014;53.076;18.208;2024-03-25T03:11:52;42.00;;;18.00;;
21705;SDS011;11014;53.076;18.208;2024-03-25T03:14:20;35.20;;;17.73;;
21705;SDS011;11014;53.076;18.208;2024-03-25T03:16:49;36.90;;;18.63;;
21705;SDS011;11014;53.076;18.208;2024-03-25T03:19:26;31.58;;;16.88;;
21705;SDS011;11014;53.076;18.208;2024-03-25T03:21:54;33.53;;;16.58;;
21705;SDS011;11014;53.076;18.208;2024-03-25T03:24:23;35.53;;;18.30;;
21705;SDS011;11014;53.076;18.208;2024-03-25T03:26:51;34.53;;;19.00;;
21705;SDS011;11014;53.076;18.208;2024-03-25T03:29:19;34.10;;;18.42;;
21705;SDS011;11014;53.076;18.208;2024-03-25T03:31:47;34.65;;;17.90;;
21705;SDS011;11014;53.076;18.208;2024-03-25T03:34:14;32.63;;;17.42;;
21705;SDS011;11014;53.076;18.208;2024-03-25T03:36:42;34.08;;;16.65;;
21705;SDS011;11014;53.076;18.208;2024-03-25T03:39:11;37.22;;;17.88;;
21705;SDS011;11014;53.076;18.208;2024-03-25T03:41:38;34.85;;;17.05;;
21705;SDS011;11014;53.076;18.208;2024-03-25T03:44:06;32.10;;;17.20;;
21705;SDS011;11014;53.076;18.208;2024-03-25T03:46:34;33.80;;;17.40;;
21705;SDS011;11014;53.076;18.208;2024-03-25T03:49:04;34.92;;;17.10;;
21705;SDS011;11014;53.076;18.208;2024-03-25T03:51:31;31.15;;;17.17;;
21705;SDS011;11014;53.076;18.208;2024-03-25T03:54:00;29.35;;;15.50;;
21705;SDS011;11014;53.076;18.208;2024-03-25T03:56:28;39.50;;;23.02;;
21705;SDS011;11014;53.076;18.208;2024-03-25T03:58:57;36.80;;;19.15;;
21705;SDS011;11014;53.076;18.208;2024-03-25T04:01:25;32.40;;;17.50;;
21705;SDS011;11014;53.076;18.208;2024-03-25T04:03:52;33.45;;;17.45;;
21705;SDS011;11014;53.076;18.208;2024-03-25T04:06:20;27.98;;;16.45;;
21705;SDS011;11014;53.076;18.208;2024-03-25T04:08:47;31.65;;;16.90;;
21705;SDS011;11014;53.076;18.208;2024-03-25T04:11:15;25.48;;;15.48;;
21705;SDS011;11014;53.076;18.208;2024-03-25T04:13:43;28.33;;;15.77;;
21705;SDS011;11014;53.076;18.208;2024-03-25T04:16:16;23.85;;;15.35;;
21705;SDS011;11014;53.076;18.208;2024-03-25T04:18:47;31.10;;;15.57;;
21705;SDS011;11014;53.076;18.208;2024-03-25T04:21:14;35.78;;;15.73;;
21705;SDS011;11014;53.076;18.208;2024-03-25T04:23:42;37.65;;;17.85;;
21705;SDS011;11014;53.076;18.208;2024-03-25T04:26:17;44.67;;;18.90;;
21705;SDS011;11014;53.076;18.208;2024-03-25T04:28:45;40.23;;;18.07;;
21705;SDS011;11014;53.076;18.208;2024-03-25T04:31:13;35.88;;;16.88;;
21705;SDS011;11014;53.076;18.208;2024-03-25T04:33:41;26.38;;;15.40;;
21705;SDS011;11014;53.076;18.208;2024-03-25T04:36:09;25.83;;;14.93;;
21705;SDS011;11014;53.076;18.208;2024-03-25T04:38:36;23.73;;;14.77;;
21705;SDS011;11014;53.076;18.208;2024-03-25T04:41:04;25.25;;;14.68;;
21705;SDS011;11014;53.076;18.208;2024-03-25T04:43:32;22.13;;;14.10;;
21705;SDS011;11014;53.076;18.208;2024-03-25T04:46:02;25.67;;;15.02;;
21705;SDS011;11014;53.076;18.208;2024-03-25T04:48:30;27.48;;;16.05;;
21705;SDS011;11014;53.076;18.208;2024-03-25T04:50:57;32.55;;;16.98;;
21705;SDS011;11014;53.076;18.208;2024-03-25T04:53:25;30.17;;;16.20;;
21705;SDS011;11014;53.076;18.208;2024-03-25T04:55:53;25.40;;;15.65;;
21705;SDS011;11014;53.076;18.208;2024-03-25T04:58:21;28.00;;;15.55;;
21705;SDS011;11014;53.076;18.208;2024-03-25T05:00:49;31.83;;;17.10;;
21705;SDS011;11014;53.076;18.208;2024-03-25T05:03:16;35.97;;;17.38;;
21705;SDS011;11014;53.076;18.208;2024-03-25T05:05:44;30.27;;;16.98;;
21705;SDS011;11014;53.076;18.208;2024-03-25T05:08:14;29.65;;;16.80;;
21705;SDS011;11014;53.076;18.208;2024-03-25T05:10:42;28.95;;;17.45;;
21705;SDS011;11014;53.076;18.208;2024-03-25T05:13:09;27.65;;;15.70;;
21705;SDS011;11014;53.076;18.208;2024-03-25T05:15:38;22.17;;;13.90;;
21705;SDS011;11014;53.076;18.208;2024-03-25T05:18:05;20.23;;;13.40;;
21705;SDS011;11014;53.076;18.208;2024-03-25T05:20:37;22.05;;;14.07;;
21705;SDS011;11014;53.076;18.208;2024-03-25T05:23:04;24.02;;;13.65;;
21705;SDS011;11014;53.076;18.208;2024-03-25T05:25:32;19.92;;;12.88;;
21705;SDS011;11014;53.076;18.208;2024-03-25T05:27:59;24.83;;;13.98;;
21705;SDS011;11014;53.076;18.208;2024-03-25T05:30:27;23.83;;;14.30;;
21705;SDS011;11014;53.076;18.208;2024-03-25T05:32:55;26.67;;;15.30;;
21705;SDS011;11014;53.076;18.208;2024-03-25T05:35:23;26.92;;;14.75;;
21705;SDS011;11014;53.076;18.208;2024-03-25T05:37:50;23.60;;;14.48;;
21705;SDS011;11014;53.076;18.208;2024-03-25T05:40:18;23.83;;;14.00;;
21705;SDS011;11014;53.076;18.208;2024-03-25T05:42:45;21.02;;;12.55;;
21705;SDS011;11014;53.076;18.208;2024-03-25T05:45:13;17.52;;;12.13;;
21705;SDS011;11014;53.076;18.208;2024-03-25T05:47:42;20.23;;;11.52;;
21705;SDS011;11014;53.076;18.208;2024-03-25T05:50:09;18.55;;;11.93;;
21705;SDS011;11014;53.076;18.208;2024-03-25T05:52:37;19.23;;;12.00;;
21705;SDS011;11014;53.076;18.208;2024-03-25T05:55:06;20.13;;;11.63;;
21705;SDS011;11014;53.076;18.208;2024-03-25T05:57:34;17.17;;;11.43;;
21705;SDS011;11014;53.076;18.208;2024-03-25T06:00:02;16.65;;;11.10;;
21705;SDS011;11014;53.076;18.208;2024-03-25T06:02:38;19.42;;;11.10;;
21705;SDS011;11014;53.076;18.208;2024-03-25T06:05:06;17.77;;;11.13;;
21705;SDS011;11014;53.076;18.208;2024-03-25T06:07:35;16.58;;;11.40;;
21705;SDS011;11014;53.076;18.208;2024-03-25T06:10:02;17.50;;;11.18;;
21705;SDS011;11014;53.076;18.208;2024-03-25T06:12:30;16.50;;;10.95;;
21705;SDS011;11014;53.076;18.208;2024-03-25T06:14:57;19.17;;;11.73;;
21705;SDS011;11014;53.076;18.208;2024-03-25T06:17:25;14.93;;;10.32;;
21705;SDS011;11014;53.076;18.208;2024-03-25T06:19:52;15.57;;;10.43;;
21705;SDS011;11014;53.076;18.208;2024-03-25T06:22:20;16.58;;;10.57;;
21705;SDS011;11014;53.076;18.208;2024-03-25T06:24:47;18.33;;;10.05;;
21705;SDS011;11014;53.076;18.208;2024-03-25T06:27:17;17.30;;;10.40;;
21705;SDS011;11014;53.076;18.208;2024-03-25T06:29:44;14.85;;;10.30;;
21705;SDS011;11014;53.076;18.208;2024-03-25T06:32:13;16.40;;;9.77;;
21705;SDS011;11014;53.076;18.208;2024-03-25T06:34:59;15.75;;;10.15;;
21705;SDS011;11014;53.076;18.208;2024-03-25T06:37:28;15.60;;;10.25;;
21705;SDS011;11014;53.076;18.208;2024-03-25T06:39:56;19.70;;;10.60;;
21705;SDS011;11014;53.076;18.208;2024-03-25T06:42:24;12.85;;;9.50;;
21705;SDS011;11014;53.076;18.208;2024-03-25T06:44:52;15.25;;;10.25;;
21705;SDS011;11014;53.076;18.208;2024-03-25T06:47:19;15.90;;;10.40;;
21705;SDS011;11014;53.076;18.208;2024-03-25T06:52:41;14.77;;;9.93;;
21705;SDS011;11014;53.076;18.208;2024-03-25T06:55:08;13.88;;;9.70;;
21705;SDS011;11014;53.076;18.208;2024-03-25T06:57:35;14.60;;;10.30;;
21705;SDS011;11014;53.076;18.208;2024-03-25T07:00:03;15.65;;;9.93;;
21705;SDS011;11014;53.076;18.208;2024-03-25T07:02:37;13.70;;;9.60;;
21705;SDS011;11014;53.076;18.208;2024-03-25T07:05:04;13.80;;;9.93;;
21705;SDS011;11014;53.076;18.208;2024-03-25T07:07:32;14.02;;;9.95;;
21705;SDS011;11014;53.076;18.208;2024-03-25T07:10:01;14.45;;;10.20;;
21705;SDS011;11014;53.076;18.208;2024-03-25T07:12:29;13.05;;;9.20;;
21705;SDS011;11014;53.076;18.208;2024-03-25T07:14:56;13.38;;;9.73;;
21705;SDS011;11014;53.076;18.208;2024-03-25T07:17:23;13.55;;;9.38;;
21705;SDS011;11014;53.076;18.208;2024-03-25T07:19:53;13.05;;;9.73;;
21705;SDS011;11014;53.076;18.208;2024-03-25T07:22:21;13.65;;;10.25;;
21705;SDS011;11014;53.076;18.208;2024-03-25T07:24:50;15.05;;;10.98;;
21705;SDS011;11014;53.076;18.208;2024-03-25T07:27:22;15.23;;;10.43;;
21705;SDS011;11014;53.076;18.208;2024-03-25T07:29:50;18.52;;;10.45;;
21705;SDS011;11014;53.076;18.208;2024-03-25T07:32:18;16.20;;;10.25;;
21705;SDS011;11014;53.076;18.208;2024-03-25T07:34:46;15.18;;;10.45;;
21705;SDS011;11014;53.076;18.208;2024-03-25T07:37:14;13.50;;;10.50;;
21705;SDS011;11014;53.076;18.208;2024-03-25T07:39:41;14.93;;;10.55;;
21705;SDS011;11014;53.076;18.208;2024-03-25T07:42:08;14.73;;;10.48;;
21705;SDS011;11014;53.076;18.208;2024-03-25T07:44:36;13.65;;;10.57;;
21705;SDS011;11014;53.076;18.208;2024-03-25T07:47:04;47.47;;;27.20;;
21705;SDS011;11014;53.076;18.208;2024-03-25T07:49:32;81.90;;;40.45;;
21705;SDS011;11014;53.076;18.208;2024-03-25T07:52:01;15.70;;;11.52;;
21705;SDS011;11014;53.076;18.208;2024-03-25T07:54:28;16.42;;;10.75;;
21705;SDS011;11014;53.076;18.208;2024-03-25T07:56:56;13.95;;;10.48;;
21705;SDS011;11014;53.076;18.208;2024-03-25T07:59:23;14.50;;;10.52;;
21705;SDS011;11014;53.076;18.208;2024-03-25T08:01:51;12.65;;;9.02;;
21705;SDS011;11014;53.076;18.208;2024-03-25T08:04:18;12.38;;;9.32;;
21705;SDS011;11014;53.076;18.208;2024-03-25T08:06:46;11.63;;;8.50;;
21705;SDS011;11014;53.076;18.208;2024-03-25T08:09:14;10.63;;;8.77;;
21705;SDS011;11014;53.076;18.208;2024-03-25T08:11:43;11.77;;;8.52;;
21705;SDS011;11014;53.076;18.208;2024-03-25T08:14:13;11.63;;;8.00;;
21705;SDS011;11014;53.076;18.208;2024-03-25T08:16:41;10.93;;;7.90;;
21705;SDS011;11014;53.076;18.208;2024-03-25T08:19:08;10.52;;;7.50;;
21705;SDS011;11014;53.076;18.208;2024-03-25T08:21:36;10.35;;;7.60;;
21705;SDS011;11014;53.076;18.208;2024-03-25T08:24:04;10.77;;;7.63;;
21705;SDS011;11014;53.076;18.208;2024-03-25T08:26:32;11.85;;;8.00;;
21705;SDS011;11014;53.076;18.208;2024-03-25T08:28:59;8.93;;;7.07;;
21705;SDS011;11014;53.076;18.208;2024-03-25T08:31:28;11.48;;;7.47;;
21705;SDS011;11014;53.076;18.208;2024-03-25T08:33:55;9.70;;;7.60;;
21705;SDS011;11014;53.076;18.208;2024-03-25T08:36:23;9.13;;;6.40;;
21705;SDS011;11014;53.076;18.208;2024-03-25T08:38:51;10.75;;;7.95;;
21705;SDS011;11014;53.076;18.208;2024-03-25T08:41:19;10.10;;;7.70;;
21705;SDS011;11014;53.076;18.208;2024-03-25T08:43:46;9.00;;;7.18;;
21705;SDS011;11014;53.076;18.208;2024-03-25T08:46:16;11.02;;;7.60;;
21705;SDS011;11014;53.076;18.208;2024-03-25T08:48:43;10.68;;;8.02;;
21705;SDS011;11014;53.076;18.208;2024-03-25T08:51:11;10.07;;;7.85;;
21705;SDS011;11014;53.076;18.208;2024-03-25T08:53:38;10.13;;;7.80;;
21705;SDS011;11014;53.076;18.208;2024-03-25T08:56:07;10.55;;;7.70;;
21705;SDS011;11014;53.076;18.208;2024-03-25T08:58:34;9.48;;;7.40;;
21705;SDS011;11014;53.076;18.208;2024-03-25T09:01:02;9.70;;;7.60;;
21705;SDS011;11014;53.076;18.208;2024-03-25T09:03:30;9.50;;;6.97;;
21705;SDS011;11014;53.076;18.208;2024-03-25T09:05:59;9.00;;;6.85;;
21705;SDS011;11014;53.076;18.208;2024-03-25T09:08:26;7.65;;;6.78;;
21705;SDS011;11014;53.076;18.208;2024-03-25T09:10:53;7.18;;;6.07;;
21705;SDS011;11014;53.076;18.208;2024-03-25T09:13:30;7.72;;;6.10;;
21705;SDS011;11014;53.076;18.208;2024-03-25T09:15:58;6.28;;;5.22;;
21705;SDS011;11014;53.076;18.208;2024-03-25T09:18:25;6.95;;;5.15;;
21705;SDS011;11014;53.076;18.208;2024-03-25T09:20:53;7.32;;;5.40;;
21705;SDS011;11014;53.076;18.208;2024-03-25T09:23:22;5.90;;;4.82;;
21705;SDS011;11014;53.076;18.208;2024-03-25T09:25:53;10.05;;;7.03;;
21705;SDS011;11014;53.076;18.208;2024-03-25T09:28:20;8.18;;;6.75;;
21705;SDS011;11014;53.076;18.208;2024-03-25T09:30:48;7.70;;;5.60;;
21705;SDS011;11014;53.076;18.208;2024-03-25T09:33:16;6.53;;;5.22;;
21705;SDS011;11014;53.076;18.208;2024-03-25T09:35:44;6.68;;;4.97;;
21705;SDS011;11014;53.076;18.208;2024-03-25T09:38:11;10.80;;;6.78;;
21705;SDS011;11014;53.076;18.208;2024-03-25T09:40:40;7.72;;;5.63;;
21705;SDS011;11014;53.076;18.208;2024-03-25T09:43:13;5.20;;;4.70;;
21705;SDS011;11014;53.076;18.208;2024-03-25T09:45:55;6.05;;;3.65;;
21705;SDS011;11014;53.076;18.208;2024-03-25T09:48:26;5.57;;;4.43;;
21705;SDS011;11014;53.076;18.208;2024-03-25T09:50:57;4.93;;;4.28;;
21705;SDS011;11014;53.076;18.208;2024-03-25T09:53:24;4.38;;;3.47;;
21705;SDS011;11014;53.076;18.208;2024-03-25T09:55:53;4.07;;;3.42;;
21705;SDS011;11014;53.076;18.208;2024-03-25T09:58:24;4.65;;;3.60;;
21705;SDS011;11014;53.076;18.208;2024-03-25T10:00:53;5.45;;;4.40;;
21705;SDS011;11014;53.076;18.208;2024-03-25T10:03:22;5.50;;;4.70;;
21705;SDS011;11014;53.076;18.208;2024-03-25T10:05:51;4.85;;;4.28;;
21705;SDS011;11014;53.076;18.208;2024-03-25T10:08:21;5.30;;;4.40;;
21705;SDS011;11014;53.076;18.208;2024-03-25T10:10:50;7.20;;;4.72;;
21705;SDS011;11014;53.076;18.208;2024-03-25T10:13:17;5.13;;;3.72;;
21705;SDS011;11014;53.076;18.208;2024-03-25T10:15:47;4.35;;;3.65;;
21705;SDS011;11014;53.076;18.208;2024-03-25T10:18:15;4.28;;;3.88;;
21705;SDS011;11014;53.076;18.208;2024-03-25T10:20:52;4.78;;;3.53;;
21705;SDS011;11014;53.076;18.208;2024-03-25T10:23:21;4.05;;;3.55;;
21705;SDS011;11014;53.076;18.208;2024-03-25T10:25:51;5.38;;;4.00;;
21705;SDS011;11014;53.076;18.208;2024-03-25T10:28:19;5.38;;;3.67;;
21705;SDS011;11014;53.076;18.208;2024-03-25T10:30:49;3.90;;;3.20;;
21705;SDS011;11014;53.076;18.208;2024-03-25T10:33:17;4.63;;;3.63;;
21705;SDS011;11014;53.076;18.208;2024-03-25T10:35:45;4.53;;;4.00;;
21705;SDS011;11014;53.076;18.208;2024-03-25T10:38:18;5.03;;;3.63;;
21705;SDS011;11014;53.076;18.208;2024-03-25T10:40:47;4.22;;;3.75;;
21705;SDS011;11014;53.076;18.208;2024-03-25T10:43:19;5.10;;;4.60;;
21705;SDS011;11014;53.076;18.208;2024-03-25T10:45:49;5.28;;;4.13;;
21705;SDS011;11014;53.076;18.208;2024-03-25T10:48:22;5.57;;;4.80;;
21705;SDS011;11014;53.076;18.208;2024-03-25T10:50:56;6.28;;;4.60;;
21705;SDS011;11014;53.076;18.208;2024-03-25T10:53:27;6.70;;;5.30;;
21705;SDS011;11014;53.076;18.208;2024-03-25T10:55:56;8.35;;;6.70;;
21705;SDS011;11014;53.076;18.208;2024-03-25T10:58:24;7.78;;;6.00;;
21705;SDS011;11014;53.076;18.208;2024-03-25T11:00:52;7.72;;;6.15;;
21705;SDS011;11014;53.076;18.208;2024-03-25T11:03:23;3.42;;;2.90;;
21705;SDS011;11014;53.076;18.208;2024-03-25T11:05:52;3.33;;;2.80;;
21705;SDS011;11014;53.076;18.208;2024-03-25T11:08:20;14.73;;;8.43;;
21705;SDS011;11014;53.076;18.208;2024-03-25T11:11:02;21.85;;;11.20;;
21705;SDS011;11014;53.076;18.208;2024-03-25T11:13:30;72.35;;;37.67;;
21705;SDS011;11014;53.076;18.208;2024-03-25T11:15:58;5.53;;;3.70;;
21705;SDS011;11014;53.076;18.208;2024-03-25T11:18:28;5.25;;;4.03;;
21705;SDS011;11014;53.076;18.208;2024-03-25T11:21:03;104.95;;;46.42;;
21705;SDS011;11014;53.076;18.208;2024-03-25T11:23:37;44.42;;;23.58;;
21705;SDS011;11014;53.076;18.208;2024-03-25T11:28:56;3.47;;;2.72;;
21705;SDS011;11014;53.076;18.208;2024-03-25T11:31:25;4.00;;;3.33;;
21705;SDS011;11014;53.076;18.208;2024-03-25T11:33:54;4.45;;;3.80;;
21705;SDS011;11014;53.076;18.208;2024-03-25T11:36:23;5.82;;;4.57;;
21705;SDS011;11014;53.076;18.208;2024-03-25T11:38:57;5.47;;;4.15;;
21705;SDS011;11014;53.076;18.208;2024-03-25T11:41:40;4.30;;;3.50;;
21705;SDS011;11014;53.076;18.208;2024-03-25T11:44:08;4.43;;;3.85;;
21705;SDS011;11014;53.076;18.208;2024-03-25T11:46:36;4.68;;;4.18;;
21705;SDS011;11014;53.076;18.208;2024-03-25T11:49:06;6.20;;;4.10;;
21705;SDS011;11014;53.076;18.208;2024-03-25T11:51:37;4.45;;;4.03;;
21705;SDS011;11014;53.076;18.208;2024-03-25T11:54:09;4.65;;;4.20;;
21705;SDS011;11014;53.076;18.208;2024-03-25T11:56:38;5.05;;;4.15;;
21705;SDS011;11014;53.076;18.208;2024-03-25T11:59:07;4.35;;;3.90;;
21705;SDS011;11014;53.076;18.208;2024-03-25T12:01:35;5.30;;;4.70;;
21705;SDS011;11014;53.076;18.208;2024-03-25T12:04:10;4.97;;;3.90;;
21705;SDS011;11014;53.076;18.208;2024-03-25T12:06:54;3.97;;;3.53;;
21705;SDS011;11014;53.076;18.208;2024-03-25T12:09:29;5.43;;;3.92;;
21705;SDS011;11014;53.076;18.208;2024-03-25T12:12:16;4.07;;;3.17;;
21705;SDS011;11014;53.076;18.208;2024-03-25T12:14:43;3.97;;;2.72;;
21705;SDS011;11014;53.076;18.208;2024-03-25T12:17:11;3.67;;;2.78;;
21705;SDS011;11014;53.076;18.208;2024-03-25T12:19:39;4.70;;;2.25;;
21705;SDS011;11014;53.076;18.208;2024-03-25T12:22:08;2.72;;;2.20;;
21705;SDS011;11014;53.076;18.208;2024-03-25T12:24:36;3.47;;;1.90;;
21705;SDS011;11014;53.076;18.208;2024-03-25T12:29:35;2.50;;;1.88;;
21705;SDS011;11014;53.076;18.208;2024-03-25T12:32:04;2.10;;;1.90;;
21705;SDS011;11014;53.076;18.208;2024-03-25T12:34:32;2.60;;;1.80;;
21705;SDS011;11014;53.076;18.208;2024-03-25T12:37:02;4.50;;;2.65;;
21705;SDS011;11014;53.076;18.208;2024-03-25T12:39:33;2.95;;;2.10;;
21705;SDS011;11014;53.076;18.208;2024-03-25T12:42:04;7.30;;;4.88;;
21705;SDS011;11014;53.076;18.208;2024-03-25T12:44:32;5.50;;;3.40;;
21705;SDS011;11014;53.076;18.208;2024-03-25T12:46:59;3.08;;;2.50;;
21705;SDS011;11014;53.076;18.208;2024-03-25T12:49:27;4.65;;;3.47;;
21705;SDS011;11014;53.076;18.208;2024-03-25T12:51:56;3.50;;;2.75;;
21705;SDS011;11014;53.076;18.208;2024-03-25T12:54:24;4.18;;;3.30;;
21705;SDS011;11014;53.076;18.208;2024-03-25T12:56:52;4.35;;;3.88;;
21705;SDS011;11014;53.076;18.208;2024-03-25T12:59:19;4.15;;;3.40;;
21705;SDS011;11014;53.076;18.208;2024-03-25T13:01:47;4.65;;;3.13;;
21705;SDS011;11014;53.076;18.208;2024-03-25T13:04:16;8.93;;;5.70;;
21705;SDS011;11014;53.076;18.208;2024-03-25T13:06:44;3.00;;;2.70;;
21705;SDS011;11014;53.076;18.208;2024-03-25T13:09:11;3.22;;;2.13;;
21705;SDS011;11014;53.076;18.208;2024-03-25T13:11:39;2.58;;;2.30;;
21705;SDS011;11014;53.076;18.208;2024-03-25T13:14:07;2.00;;;1.80;;
21705;SDS011;11014;53.076;18.208;2024-03-25T13:16:39;2.42;;;1.70;;
21705;SDS011;11014;53.076;18.208;2024-03-25T13:19:07;2.50;;;2.10;;
21705;SDS011;11014;53.076;18.208;2024-03-25T13:21:34;3.35;;;2.80;;
21705;SDS011;11014;53.076;18.208;2024-03-25T13:24:01;2.38;;;1.83;;
21705;SDS011;11014;53.076;18.208;2024-03-25T13:26:29;2.28;;;1.90;;
21705;SDS011;11014;53.076;18.208;2024-03-25T13:28:56;5.82;;;3.85;;
21705;SDS011;11014;53.076;18.208;2024-03-25T13:31:25;5.82;;;3.75;;
21705;SDS011;11014;53.076;18.208;2024-03-25T13:33:53;3.55;;;3.03;;
21705;SDS011;11014;53.076;18.208;2024-03-25T13:36:26;4.10;;;2.72;;
21705;SDS011;11014;53.076;18.208;2024-03-25T13:38:55;3.95;;;2.90;;
21705;SDS011;11014;53.076;18.208;2024-03-25T13:41:22;3.80;;;2.67;;
21705;SDS011;11014;53.076;18.208;2024-03-25T13:43:50;3.20;;;2.85;;
21705;SDS011;11014;53.076;18.208;2024-03-25T13:46:18;4.07;;;3.25;;
21705;SDS011;11014;53.076;18.208;2024-03-25T13:48:49;5.05;;;3.60;;
21705;SDS011;11014;53.076;18.208;2024-03-25T13:51:18;18.85;;;11.20;;
21705;SDS011;11014;53.076;18.208;2024-03-25T13:53:46;4.82;;;4.10;;
21705;SDS011;11014;53.076;18.208;2024-03-25T13:56:13;15.18;;;9.70;;
21705;SDS011;11014;53.076;18.208;2024-03-25T13:58:41;6.55;;;5.25;;
21705;SDS011;11014;53.076;18.208;2024-03-25T14:01:08;7.55;;;5.22;;
21705;SDS011;11014;53.076;18.208;2024-03-25T14:03:36;5.50;;;4.30;;
21705;SDS011;11014;53.076;18.208;2024-03-25T14:06:05;8.02;;;6.13;;
21705;SDS011;11014;53.076;18.208;2024-03-25T14:08:32;6.15;;;4.97;;
21705;SDS011;11014;53.076;18.208;2024-03-25T14:11:03;7.88;;;5.80;;
21705;SDS011;11014;53.076;18.208;2024-03-25T14:13:30;9.73;;;6.63;;
21705;SDS011;11014;53.076;18.208;2024-03-25T14:15:58;7.75;;;5.43;;
21705;SDS011;11014;53.076;18.208;2024-03-25T14:18:25;7.88;;;5.28;;
21705;SDS011;11014;53.076;18.208;2024-03-25T14:20:54;10.80;;;8.02;;
21705;SDS011;11014;53.076;18.208;2024-03-25T14:23:21;9.25;;;6.68;;
21705;SDS011;11014;53.076;18.208;2024-03-25T14:25:50;10.60;;;7.40;;
21705;SDS011;11014;53.076;18.208;2024-03-25T14:31:12;5.35;;;4.25;;
21705;SDS011;11014;53.076;18.208;2024-03-25T14:33:39;5.90;;;4.03;;
21705;SDS011;11014;53.076;18.208;2024-03-25T14:36:07;4.10;;;3.70;;
21705;SDS011;11014;53.076;18.208;2024-03-25T14:39:00;5.85;;;4.40;;